createdAt,value
2022-08-26T00:01:58.160Z,97386.50
2022-08-26T00:06:04.166Z,97375.22
2022-08-26T00:10:09.131Z,97372.78
2022-08-26T00:14:14.683Z,97384.66
2022-08-26T00:18:22.151Z,97379.94
2022-08-26T00:22:25.615Z,97377.41
2022-08-26T00:26:29.554Z,97369.47
2022-08-26T00:30:35.805Z,97387.53
2022-08-26T00:34:39.621Z,97379.69
2022-08-26T00:38:42.991Z,97376.03
2022-08-26T00:42:46.798Z,97365.50
2022-08-26T00:46:58.903Z,97376.47
2022-08-26T00:51:07.892Z,97382.00
2022-08-26T00:55:20.126Z,97377.53
2022-08-26T00:59:25.601Z,97377.75
2022-08-26T01:03:35.058Z,97367.59
2022-08-26T01:07:39.074Z,97370.00
2022-08-26T01:11:43.243Z,97369.19
2022-08-26T01:15:50.030Z,97363.31
2022-08-26T01:20:03.119Z,97362.97
2022-08-26T01:24:10.623Z,97359.88
2022-08-26T01:28:17.979Z,97362.50
2022-08-26T01:32:24.201Z,97365.16
2022-08-26T01:40:54.594Z,97359.66
2022-08-26T01:45:02.456Z,97362.75
2022-08-26T01:49:10.070Z,97371.13
2022-08-26T01:53:17.938Z,97366.97
2022-08-26T01:57:24.331Z,97368.69
2022-08-26T02:01:29.597Z,97370.97
2022-08-26T02:05:33.470Z,97369.13
2022-08-26T02:09:41.213Z,97355.31
2022-08-26T02:13:49.275Z,97354.78
2022-08-26T02:17:53.927Z,97362.03
2022-08-26T02:22:02.406Z,97371.69
2022-08-26T02:26:12.435Z,97361.03
2022-08-26T02:30:26.079Z,97359.31
2022-08-26T02:34:34.145Z,97364.75
2022-08-26T02:38:37.401Z,97370.16
2022-08-26T02:42:43.902Z,97367.84
2022-08-26T02:46:49.012Z,97367.19
2022-08-26T02:50:52.213Z,97357.38
2022-08-26T02:54:56.453Z,97358.50
2022-08-26T02:59:00.159Z,97364.84
2022-08-26T03:03:06.032Z,97358.06
2022-08-26T03:07:09.319Z,97359.69
2022-08-26T03:11:13.742Z,97360.47
2022-08-26T03:15:18.648Z,97353.56
2022-08-26T03:19:25.445Z,97357.81
2022-08-26T03:23:30.127Z,97366.22
2022-08-26T03:27:33.768Z,97360.38
2022-08-26T03:31:37.166Z,97355.09
2022-08-26T03:35:43.861Z,97354.03
2022-08-26T03:39:47.868Z,97352.44
2022-08-26T03:43:51.136Z,97354.25
2022-08-26T03:47:55.261Z,97357.97
2022-08-26T03:52:02.451Z,97366.69
2022-08-26T03:56:08.412Z,97358.19
2022-08-26T04:00:15.303Z,97354.50
2022-08-26T04:04:22.854Z,97367.50
2022-08-26T04:08:29.887Z,97363.59
2022-08-26T04:12:32.973Z,97358.88
2022-08-26T04:16:37.188Z,97362.09
2022-08-26T04:20:41.303Z,97361.63
2022-08-26T04:24:45.871Z,97364.28
2022-08-26T04:28:49.824Z,97367.50
2022-08-26T04:32:53.423Z,97361.97
2022-08-26T04:36:57.916Z,97358.06
2022-08-26T04:41:05.461Z,97352.88
2022-08-26T04:45:11.571Z,97360.13
2022-08-26T04:49:15.728Z,97369.31
2022-08-26T04:53:19.207Z,97368.75
2022-08-26T04:57:25.315Z,97362.63
2022-08-26T05:01:30.098Z,97363.44
2022-08-26T05:05:34.847Z,97359.47
2022-08-26T05:09:38.539Z,97360.78
2022-08-26T05:13:44.128Z,97357.38
2022-08-26T05:17:48.619Z,97367.25
2022-08-26T05:21:52.817Z,97373.16
2022-08-26T05:25:59.282Z,97365.19
2022-08-26T05:30:06.706Z,97363.81
2022-08-26T05:34:11.193Z,97375.19
2022-08-26T05:38:20.884Z,97380.69
2022-08-26T05:42:25.408Z,97365.38
2022-08-26T05:46:37.375Z,97374.31
2022-08-26T05:50:41.943Z,97374.13
2022-08-26T05:54:47.944Z,97375.22
2022-08-26T05:58:54.750Z,97382.84
2022-08-26T06:02:59.905Z,97383.00
2022-08-26T06:07:03.957Z,97346.09
2022-08-26T06:11:18.524Z,97387.94
2022-08-26T06:15:22.751Z,97393.44
2022-08-26T06:19:32.647Z,97393.78
2022-08-26T06:23:53.517Z,97396.22
2022-08-26T06:27:57.808Z,97396.31
2022-08-26T06:32:03.318Z,97401.47
2022-08-26T06:36:10.585Z,97377.47
2022-08-26T06:40:16.259Z,97374.56
2022-08-26T06:44:21.082Z,97405.72
2022-08-26T06:48:25.575Z,97374.50
2022-08-26T06:52:32.603Z,97400.03
2022-08-26T06:56:38.976Z,97406.50
2022-08-26T07:00:47.350Z,97349.56
2022-08-26T07:04:51.543Z,97352.63
2022-08-26T07:09:06.760Z,97391.31
2022-08-26T07:13:18.516Z,97374.53
2022-08-26T07:17:35.863Z,97392.94
2022-08-26T07:21:41.296Z,97398.91
2022-08-26T07:25:47.152Z,97404.38
2022-08-26T07:29:50.716Z,97358.44
2022-08-26T07:33:55.406Z,97401.91
2022-08-26T07:37:58.987Z,97401.97
2022-08-26T07:42:08.216Z,97403.63
2022-08-26T07:46:16.364Z,97398.84
2022-08-26T07:50:20.696Z,97387.41
2022-08-26T07:54:26.966Z,97366.59
2022-08-26T07:58:32.420Z,97390.97
2022-08-26T08:02:36.720Z,97386.41
2022-08-26T08:06:40.609Z,97389.13
2022-08-26T08:10:48.806Z,97397.94
2022-08-26T08:14:53.903Z,97402.97
2022-08-26T08:18:59.232Z,97400.84
2022-08-26T08:23:09.212Z,97395.69
2022-08-26T08:27:17.176Z,97397.00
2022-08-26T08:31:52.573Z,97401.75
2022-08-26T08:35:52.862Z,97392.63
2022-08-26T08:39:58.476Z,97388.09
2022-08-26T08:44:03.710Z,97398.09
2022-08-26T08:48:15.644Z,97397.19
2022-08-26T08:52:29.403Z,97398.13
2022-08-26T08:56:36.834Z,97402.50
2022-08-26T09:00:49.412Z,97387.44
2022-08-26T09:05:10.021Z,97384.31
2022-08-26T09:09:25.109Z,97383.84
2022-08-26T09:13:31.835Z,97383.31
2022-08-26T09:17:45.080Z,97387.50
2022-08-26T09:21:58.103Z,97385.31
2022-08-26T09:26:05.910Z,97383.66
2022-08-26T09:30:11.998Z,97382.97
2022-08-26T09:34:19.959Z,97382.63
2022-08-26T09:38:35.062Z,97374.31
2022-08-26T09:42:40.757Z,97361.25
2022-08-26T09:46:54.376Z,97356.81
2022-08-26T09:51:02.128Z,97375.03
2022-08-26T09:55:15.778Z,97363.06
2022-08-26T09:59:32.565Z,97358.31
2022-08-26T10:03:40.864Z,97341.16
2022-08-26T10:07:49.972Z,97354.97
2022-08-26T10:11:59.430Z,97359.78
2022-08-26T10:16:13.219Z,97344.38
2022-08-26T10:20:23.426Z,97341.78
2022-08-26T10:24:33.132Z,97328.44
2022-08-26T10:28:44.492Z,97333.34
2022-08-26T10:32:53.553Z,97327.03
2022-08-26T10:37:14.280Z,97321.75
2022-08-26T10:41:25.122Z,97299.72
2022-08-26T10:45:36.499Z,97311.22
2022-08-26T10:49:42.966Z,97306.34
2022-08-26T10:53:57.552Z,97301.78
2022-08-26T10:58:09.432Z,97303.50
2022-08-26T11:02:25.356Z,97297.09
2022-08-26T11:06:32.210Z,97289.41
2022-08-26T11:10:59.039Z,97281.69
2022-08-26T11:15:06.768Z,97291.94
2022-08-26T11:20:03.866Z,97281.28
2022-08-26T11:24:27.387Z,97276.81
2022-08-26T11:28:36.492Z,97260.44
2022-08-26T11:32:51.909Z,97261.44
2022-08-26T11:37:00.604Z,97260.63
2022-08-26T11:41:10.649Z,97261.56
2022-08-26T11:45:21.139Z,97258.19
2022-08-26T11:49:26.587Z,97251.19
2022-08-26T11:53:33.860Z,97247.44
2022-08-26T11:57:45.436Z,97245.03
2022-08-26T12:01:54.014Z,97243.19
2022-08-26T12:05:57.801Z,97243.63
2022-08-26T12:10:04.133Z,97228.59
2022-08-26T12:14:17.957Z,97233.31
2022-08-26T12:18:29.166Z,97227.41
2022-08-26T12:22:36.472Z,97224.06
2022-08-26T12:26:42.301Z,97221.81
2022-08-26T12:31:01.079Z,97217.72
2022-08-26T12:39:14.379Z,97209.84
2022-08-26T12:43:40.727Z,97200.31
2022-08-26T12:47:46.588Z,97200.84
2022-08-26T12:51:51.697Z,97195.78
2022-08-26T12:55:58.142Z,97182.22
2022-08-26T13:00:30.567Z,97179.53
2022-08-26T13:04:39.820Z,97169.00
2022-08-26T13:08:44.945Z,97169.50
2022-08-26T13:12:48.295Z,97163.75
2022-08-26T13:16:53.846Z,97164.00
2022-08-26T13:20:57.890Z,97157.94
2022-08-26T13:25:01.552Z,97155.34
2022-08-26T13:29:09.667Z,97148.00
2022-08-26T13:33:17.375Z,97148.13
2022-08-26T13:37:34.139Z,97145.41
2022-08-26T13:41:41.510Z,97141.72
2022-08-26T13:45:45.774Z,97146.00
2022-08-26T13:49:50.537Z,97142.63
2022-08-26T13:53:55.085Z,97139.94
2022-08-26T13:57:59.075Z,97138.81
2022-08-26T14:02:03.549Z,97135.50
2022-08-26T14:06:08.792Z,97135.75
2022-08-26T14:10:12.952Z,97130.56
2022-08-26T14:14:16.386Z,97127.63
2022-08-26T14:18:31.257Z,97118.41
2022-08-26T14:22:40.528Z,97130.00
2022-08-26T14:26:48.758Z,97127.38
2022-08-26T14:30:55.452Z,97126.28
2022-08-26T14:34:59.112Z,97112.66
2022-08-26T14:39:07.260Z,97110.78
2022-08-26T14:43:11.299Z,97102.88
2022-08-26T14:47:14.607Z,97104.22
2022-08-26T14:51:18.564Z,97093.94
2022-08-26T14:55:23.559Z,97089.63
2022-08-26T14:59:28.905Z,97087.72
2022-08-26T15:03:32.159Z,97085.59
2022-08-26T15:07:35.942Z,97082.06
2022-08-26T15:11:41.323Z,97080.75
2022-08-26T15:15:45.126Z,97072.25
2022-08-26T15:19:48.934Z,97066.78
2022-08-26T15:23:53.386Z,97068.69
2022-08-26T15:27:58.372Z,97077.63
2022-08-26T15:32:02.141Z,97084.94
2022-08-26T15:36:07.317Z,97079.03
2022-08-26T15:40:11.622Z,97077.13
2022-08-26T15:44:18.264Z,97074.97
2022-08-26T15:48:22.113Z,97071.34
2022-08-26T15:52:26.750Z,97069.19
2022-08-26T15:56:34.525Z,97067.94
2022-08-26T16:00:39.623Z,97070.34
2022-08-26T16:04:43.044Z,97066.56
2022-08-26T16:08:47.794Z,97063.09
2022-08-26T16:12:51.332Z,97057.09
2022-08-26T16:16:58.259Z,97060.88
2022-08-26T16:21:13.150Z,97062.34
2022-08-26T16:25:17.793Z,97070.28
2022-08-26T16:29:21.587Z,97079.69
2022-08-26T16:33:29.422Z,97082.81
2022-08-26T16:37:36.509Z,97076.94
2022-08-26T16:41:42.260Z,97063.28
2022-08-26T16:45:45.519Z,97056.84
2022-08-26T16:49:51.315Z,97054.41
2022-08-26T16:53:56.963Z,97049.38
2022-08-26T16:58:01.213Z,97046.59
2022-08-26T17:02:05.187Z,97058.56
2022-08-26T17:06:11.187Z,97072.47
2022-08-26T17:10:14.968Z,97075.84
2022-08-26T17:14:19.214Z,97081.88
2022-08-26T17:18:22.544Z,97079.47
2022-08-26T17:22:32.723Z,97073.81
2022-08-26T17:26:38.511Z,97071.53
2022-08-26T17:30:43.139Z,97060.47
2022-08-26T17:39:44.610Z,97033.81
2022-08-26T17:43:48.528Z,97040.88
2022-08-26T17:47:51.932Z,97058.16
2022-08-26T17:51:55.598Z,97088.50
2022-08-26T17:56:00.604Z,97094.31
2022-08-26T18:00:07.511Z,97096.09
2022-08-26T18:04:11.158Z,97113.13
2022-08-26T18:08:14.815Z,97103.13
2022-08-26T18:12:19.731Z,97111.84
2022-08-26T18:16:23.206Z,97087.53
2022-08-26T18:20:27.807Z,97103.97
2022-08-26T18:24:32.799Z,97124.84
2022-08-26T18:28:37.773Z,97155.94
2022-08-26T18:32:41.337Z,97119.47
2022-08-26T18:36:48.239Z,97167.84
2022-08-26T18:40:52.038Z,97175.38
2022-08-26T18:44:57.035Z,97145.00
2022-08-26T18:49:02.008Z,97175.97
2022-08-26T18:53:05.583Z,97189.84
2022-08-26T18:57:09.271Z,97146.88
2022-08-26T19:01:14.483Z,97168.75
2022-08-26T19:05:18.550Z,97169.81
2022-08-26T19:09:22.876Z,97178.03
2022-08-26T19:13:27.483Z,97143.81
2022-08-26T19:17:32.502Z,97193.75
2022-08-26T19:21:36.814Z,97172.28
2022-08-26T19:25:42.540Z,97220.53
2022-08-26T19:29:47.722Z,97216.97
2022-08-26T19:33:52.676Z,97165.09
2022-08-26T19:37:56.197Z,97210.91
2022-08-26T19:42:00.498Z,97158.16
2022-08-26T19:46:14.829Z,97153.56
2022-08-26T19:50:20.109Z,97191.66
2022-08-26T19:54:24.181Z,97145.03
2022-08-26T19:58:30.436Z,97186.56
2022-08-26T20:02:34.319Z,97148.97
2022-08-26T20:06:40.116Z,97141.97
2022-08-26T20:10:45.126Z,97146.69
2022-08-26T20:14:49.440Z,97119.03
2022-08-26T20:19:10.886Z,97146.47
2022-08-26T20:24:21.898Z,97213.09
2022-08-26T20:28:51.115Z,97178.09
2022-08-26T20:33:45.983Z,97165.28
2022-08-26T20:38:28.673Z,97217.06
2022-08-26T20:43:33.509Z,97215.09
2022-08-26T20:47:38.667Z,97213.06
2022-08-26T20:51:43.510Z,97207.97
2022-08-26T20:55:47.181Z,97199.94
2022-08-26T20:59:50.895Z,97191.41
2022-08-26T21:03:57.517Z,97179.44
2022-08-26T21:08:01.430Z,97172.19
2022-08-26T21:12:05.841Z,97166.31
2022-08-26T21:16:09.805Z,97172.13
2022-08-26T21:20:14.709Z,97168.91
2022-08-26T21:24:19.082Z,97177.38
2022-08-26T21:28:22.581Z,97185.81
2022-08-26T21:32:26.259Z,97196.09
2022-08-26T21:36:31.244Z,97202.66
2022-08-26T21:40:34.478Z,97203.63
2022-08-26T21:44:38.238Z,97206.75
2022-08-26T21:48:45.715Z,97215.22
2022-08-26T21:52:53.928Z,97220.53
2022-08-26T21:56:57.603Z,97231.38
2022-08-26T22:01:01.677Z,97235.84
2022-08-26T22:05:05.814Z,97228.94
2022-08-26T22:09:11.015Z,97230.78
2022-08-26T22:13:15.295Z,97231.03
2022-08-26T22:17:18.947Z,97232.88
2022-08-26T22:21:25.066Z,97228.84
2022-08-26T22:25:30.208Z,97209.41
2022-08-26T22:29:34.053Z,97212.88
2022-08-26T22:33:37.783Z,97200.88
2022-08-26T22:37:41.080Z,97205.31
2022-08-26T22:41:48.743Z,97204.66
2022-08-26T22:45:53.553Z,97194.75
2022-08-26T22:49:57.342Z,97197.47
2022-08-26T22:54:00.769Z,97201.56
2022-08-26T22:58:06.234Z,97214.13
2022-08-26T23:02:12.017Z,97203.31
2022-08-26T23:06:16.655Z,97210.28
2022-08-26T23:10:20.840Z,97217.81
2022-08-26T23:14:27.522Z,97218.16
2022-08-26T23:18:30.787Z,97210.00
2022-08-26T23:22:34.537Z,97209.25
2022-08-26T23:26:38.502Z,97201.66
2022-08-26T23:30:44.148Z,97204.44
2022-08-26T23:35:00.486Z,97182.34
2022-08-26T23:39:05.146Z,97169.00
2022-08-26T23:43:11.897Z,97173.13
2022-08-26T23:47:17.491Z,97175.66
2022-08-26T23:51:38.757Z,97174.75
2022-08-26T23:55:42.379Z,97165.91
2022-08-26T23:59:45.580Z,97158.91
